Rimrock, AZ

10:53 AM MST on August 22, 2014 (GMT -0700)
Rimrock by the Post Office | Change Station
CLOSE
Current Station
Personal Weather Station
Location: Rimrock, AZ
Elevation: 3520 ft
Nearby Weather Stations

Elev 3520 ft 34.65 °N, 111.79 °W | Updated 4 seconds ago

Scattered Clouds
Scattered Clouds
76.4 °F
Feels Like 78 °F
N
0.0
Wind Variable Wind from SSE
Gusts 11.0 mph

Today
High -- | Low -- °F
--% Chance of Precip.
Yesterday
High -- | Low -- °F
Precip. -- in
5:52 AM 7:06 PM
Waning Crescent, 7% visible
Pressure 30.18 in
Visibility 10.0 miles
Clouds Scattered Clouds 3300 ft
Heat Index 78 °F
Dew Point 58 °F
Humidity 54%
Rainfall 0.04 in
Snow Depth Not available.
UV 8 out of 12
Pollen 4.90 out of 12
Air Quality Not available.
Flu Activity Not available.
METAR KSEZ 221735Z AUTO 15006KT 10SM SCT033 24/13 A3018 RMK AO2

More Conditions Fewer Conditions

Pressure 30.18 in
Visibility 10.0 miles
Clouds Scattered Clouds 3300 ft
Heat Index 78 °F
Dew Point 58 °F
Humidity 54%
Rainfall 0.04 in
Snow Depth Not available.
UV 8 out of 12
Pollen 4.90 out of 12
Air Quality Not available.
Flu Activity Not available.
METAR KSEZ 221735Z AUTO 15006KT 10SM SCT033 24/13 A3018 RMK AO2

More Conditions Fewer Conditions

10-Day Weather Forecast

Almanac

Astronomy

Aug. 22, 2014 Rise Set
Actual Time 5:52 AM MST 7:06 PM MST
Civil Twilight 5:26 AM MST 7:32 PM MST
Nautical Twilight 4:55 AM MST 8:03 PM MST
Astronomical Twilight 4:22 AM MST 8:36 PM MST
Moon 3:21 AM MST 5:15 PM MST
Length of Visible Light 14h 05m
Length of Day
13h 13m
Tomorrow will be 1m 59s shorter.
Waning Crescent, 7% of the Moon is Illuminated
Today
Waning Crescent
Aug 25
New
Sep 2
First Quarter
Sep 8
Full
Sep 15
Last Quarter

Today's Extremes

State Highs State Lows

Community

WunderPhotos

Upload Photos

1,746,206 photos uploaded!

WunderBlogs® & News

Nearby

Snow Depth

Station Depth Elevation
White Horse Lake 0 in 7180 ft
Promontory 0 in 7930 ft
Snowslide Canyon 1 in 9730 ft
Workman Creek 1 in 6900 ft
Beaver Head 14 in 7990 ft

Earthquake Activity

City Distance Mag. Time & Date
No recent earthquake activity has been reported nearby.
Minimum magnitude displayed is 2.5.

Coastal Water Temperatures

Place Temperature
No Stations Reporting

Nearby Weather Stations